createdAt,value
2016-12-06T00:00:40.801Z,-3.35
2016-12-06T00:01:40.771Z,-3.41
2016-12-06T00:02:40.739Z,-3.41
2016-12-06T00:03:40.714Z,-3.39
2016-12-06T00:04:40.728Z,-3.38
2016-12-06T00:05:40.872Z,-3.39
2016-12-06T00:06:40.640Z,-3.36
2016-12-06T00:07:40.936Z,-3.38
2016-12-06T00:08:40.593Z,-3.32
2016-12-06T00:09:40.564Z,-3.33
2016-12-06T00:10:40.548Z,-3.31
2016-12-06T00:11:40.516Z,-3.32
2016-12-06T00:12:40.494Z,-3.33
2016-12-06T00:13:40.463Z,-3.36
2016-12-06T00:14:40.444Z,-3.38
2016-12-06T00:15:40.415Z,-3.39
2016-12-06T00:16:40.705Z,-3.36
2016-12-06T00:17:40.681Z,-3.36
2016-12-06T00:18:40.340Z,-3.41
2016-12-06T00:19:40.630Z,-3.39
2016-12-06T00:20:40.290Z,-3.47
2016-12-06T00:21:40.266Z,-3.39
2016-12-06T00:22:40.238Z,-3.44
2016-12-06T00:23:40.218Z,-3.43
2016-12-06T00:24:40.194Z,-3.44
2016-12-06T00:25:40.165Z,-3.49
2016-12-06T00:26:40.145Z,-3.47
2016-12-06T00:27:40.120Z,-3.41
2016-12-06T00:28:40.110Z,-3.39
2016-12-06T00:29:40.067Z,-3.53
2016-12-06T00:30:40.050Z,-3.56
2016-12-06T00:31:40.016Z,-3.56
2016-12-06T00:32:39.991Z,-3.56
2016-12-06T00:33:39.969Z,-3.49
2016-12-06T00:34:39.942Z,-3.53
2016-12-06T00:35:39.914Z,-3.53
2016-12-06T00:36:39.922Z,-3.49
2016-12-06T00:37:39.867Z,-3.53
2016-12-06T00:38:39.848Z,-3.49
2016-12-06T00:39:40.153Z,-3.53
2016-12-06T00:40:39.795Z,-3.51
2016-12-06T00:41:39.770Z,-3.54
2016-12-06T00:42:39.741Z,-3.46
2016-12-06T00:43:39.719Z,-3.49
2016-12-06T00:44:40.008Z,-3.46
2016-12-06T00:45:39.666Z,-3.49
2016-12-06T00:46:39.645Z,-3.5
2016-12-06T00:47:39.616Z,-3.57
2016-12-06T00:48:39.593Z,-3.5
2016-12-06T00:49:39.572Z,-3.46
2016-12-06T00:50:39.855Z,-3.54
2016-12-06T00:51:39.515Z,-3.5
2016-12-06T00:52:39.492Z,-3.53
2016-12-06T00:53:39.467Z,-3.53
2016-12-06T00:54:39.445Z,-3.51
2016-12-06T00:55:39.413Z,-3.5
2016-12-06T00:56:39.703Z,-3.5
2016-12-06T00:57:39.367Z,-3.49
2016-12-06T00:58:39.340Z,-3.44
2016-12-06T00:59:39.320Z,-3.49
2016-12-06T01:00:39.291Z,-3.51
2016-12-06T01:01:39.577Z,-3.53
2016-12-06T01:02:39.238Z,-3.54
2016-12-06T01:03:39.218Z,-3.47
2016-12-06T01:04:39.185Z,-3.51
2016-12-06T01:05:39.164Z,-3.47
2016-12-06T01:06:39.146Z,-3.47
2016-12-06T01:07:39.147Z,-3.44
2016-12-06T01:08:39.418Z,-3.39
2016-12-06T01:09:39.073Z,-3.38
2016-12-06T01:10:39.359Z,-3.39
2016-12-06T01:11:39.012Z,-3.43
2016-12-06T01:12:38.999Z,-3.38
2016-12-06T01:13:38.966Z,-3.38
2016-12-06T01:14:38.935Z,-3.44
2016-12-06T01:15:38.917Z,-3.32
2016-12-06T01:16:38.885Z,-3.36
2016-12-06T01:17:38.877Z,-3.29
2016-12-06T01:18:38.845Z,-3.29
2016-12-06T01:19:39.129Z,-3.35
2016-12-06T01:20:39.108Z,-3.39
2016-12-06T01:21:38.780Z,-3.36
2016-12-06T01:22:38.752Z,-3.31
2016-12-06T01:23:38.723Z,-3.36
2016-12-06T01:24:38.687Z,-3.32
2016-12-06T01:25:38.666Z,-3.29
2016-12-06T01:26:38.642Z,-3.35
2016-12-06T01:27:38.620Z,-3.35
2016-12-06T01:28:38.594Z,-3.32
2016-12-06T01:29:38.563Z,-3.38
2016-12-06T01:30:38.859Z,-3.28
2016-12-06T01:31:38.516Z,-3.31
2016-12-06T01:32:38.491Z,-3.28
2016-12-06T01:33:38.468Z,-3.29
2016-12-06T01:34:38.452Z,-3.39
2016-12-06T01:35:38.427Z,-3.35
2016-12-06T01:36:38.411Z,-3.26
2016-12-06T01:37:38.711Z,-3.41
2016-12-06T01:38:38.657Z,-3.26
2016-12-06T01:39:38.321Z,-3.29
2016-12-06T01:40:38.294Z,-3.32
2016-12-06T01:41:38.615Z,-3.46
2016-12-06T01:42:38.244Z,-3.39
2016-12-06T01:43:38.218Z,-3.43
2016-12-06T01:44:38.193Z,-3.43
2016-12-06T01:45:38.175Z,-3.39
2016-12-06T01:46:38.145Z,-3.35
2016-12-06T01:47:38.117Z,-3.41
2016-12-06T01:48:38.092Z,-3.36
2016-12-06T01:49:38.390Z,-3.39
2016-12-06T01:50:38.041Z,-3.46
2016-12-06T01:51:38.334Z,-3.43
2016-12-06T01:52:37.992Z,-3.39
2016-12-06T01:53:37.972Z,-3.43
2016-12-06T01:54:37.946Z,-3.51
2016-12-06T01:55:38.231Z,-3.46
2016-12-06T01:56:37.891Z,-3.44
2016-12-06T01:57:38.184Z,-3.39
2016-12-06T01:58:37.842Z,-3.39
2016-12-06T01:59:37.820Z,-3.46
2016-12-06T02:00:37.789Z,-3.41
2016-12-06T02:01:37.766Z,-3.47
2016-12-06T02:02:37.742Z,-3.41
2016-12-06T02:03:37.719Z,-3.43
2016-12-06T02:04:37.692Z,-3.43
2016-12-06T02:05:38.392Z,-3.39
2016-12-06T02:06:37.648Z,-3.46
2016-12-06T02:07:37.618Z,-3.5
2016-12-06T02:08:37.912Z,-3.47
2016-12-06T02:09:37.566Z,-3.51
2016-12-06T02:10:37.550Z,-3.49
2016-12-06T02:11:37.519Z,-3.53
2016-12-06T02:12:37.509Z,-3.53
2016-12-06T02:13:37.468Z,-3.54
2016-12-06T02:14:37.442Z,-3.57
2016-12-06T02:15:37.418Z,-3.5
2016-12-06T02:16:37.393Z,-3.46
2016-12-06T02:17:37.685Z,-3.49
2016-12-06T02:18:37.350Z,-3.53
2016-12-06T02:19:37.315Z,-3.49
2016-12-06T02:20:37.295Z,-3.54
2016-12-06T02:21:37.265Z,-3.54
2016-12-06T02:22:37.247Z,-3.53
2016-12-06T02:23:37.223Z,-3.53
2016-12-06T02:24:37.217Z,-3.57
2016-12-06T02:25:37.169Z,-3.5
2016-12-06T02:26:37.142Z,-3.56
2016-12-06T02:27:37.115Z,-3.53
2016-12-06T02:28:37.093Z,-3.56
2016-12-06T02:29:37.067Z,-3.51
2016-12-06T02:30:37.045Z,-3.57
2016-12-06T02:31:37.020Z,-3.56
2016-12-06T02:32:36.990Z,-3.64
2016-12-06T02:33:36.969Z,-3.65
2016-12-06T02:34:37.252Z,-3.67
2016-12-06T02:35:37.227Z,-3.67
2016-12-06T02:36:36.893Z,-3.65
2016-12-06T02:37:36.870Z,-3.7
2016-12-06T02:38:37.159Z,-3.7
2016-12-06T02:39:36.820Z,-3.64
2016-12-06T02:40:36.792Z,-3.62
2016-12-06T02:41:36.768Z,-3.64
2016-12-06T02:42:36.743Z,-3.64
2016-12-06T02:43:36.742Z,-3.67
2016-12-06T02:44:36.695Z,-3.62
2016-12-06T02:45:36.669Z,-3.62
2016-12-06T02:46:36.646Z,-3.7
2016-12-06T02:47:36.614Z,-3.71
2016-12-06T02:48:36.591Z,-3.76
2016-12-06T02:49:36.569Z,-3.75
2016-12-06T02:50:36.865Z,-3.7
2016-12-06T02:51:36.829Z,-3.68
2016-12-06T02:52:36.804Z,-3.7
2016-12-06T02:53:36.463Z,-3.71
2016-12-06T02:54:36.445Z,-3.67
2016-12-06T02:55:36.417Z,-3.7
2016-12-06T02:56:36.388Z,-3.72
2016-12-06T02:57:36.364Z,-3.78
2016-12-06T02:58:36.344Z,-3.75
2016-12-06T02:59:36.321Z,-3.8
2016-12-06T03:00:36.292Z,-3.81
2016-12-06T03:01:36.262Z,-3.86
2016-12-06T03:02:36.239Z,-3.86
2016-12-06T03:03:36.210Z,-3.84
2016-12-06T03:04:36.189Z,-3.75
2016-12-06T03:05:36.164Z,-3.83
2016-12-06T03:06:36.141Z,-3.72
2016-12-06T03:07:36.440Z,-3.76
2016-12-06T03:08:36.088Z,-3.75
2016-12-06T03:09:36.061Z,-3.71
2016-12-06T03:10:36.375Z,-3.72
2016-12-06T03:11:36.015Z,-3.71
2016-12-06T03:12:36.312Z,-3.76
2016-12-06T03:13:35.963Z,-3.67
2016-12-06T03:14:35.940Z,-3.68
2016-12-06T03:15:35.916Z,-3.67
2016-12-06T03:16:35.895Z,-3.62
2016-12-06T03:17:35.861Z,-3.61
2016-12-06T03:18:35.844Z,-3.64
2016-12-06T03:19:35.806Z,-3.65
2016-12-06T03:20:35.784Z,-3.64
2016-12-06T03:21:35.759Z,-3.61
2016-12-06T03:22:35.732Z,-3.62
2016-12-06T03:23:35.711Z,-3.6
2016-12-06T03:24:35.686Z,-3.61
2016-12-06T03:25:35.654Z,-3.6
2016-12-06T03:26:35.955Z,-3.57
2016-12-06T03:27:35.920Z,-3.5
2016-12-06T03:28:35.587Z,-3.46
2016-12-06T03:29:35.559Z,-3.47
2016-12-06T03:30:35.556Z,-3.56
2016-12-06T03:31:35.815Z,-3.43
2016-12-06T03:32:35.493Z,-3.49
2016-12-06T03:33:35.460Z,-3.47
2016-12-06T03:34:35.438Z,-3.44
2016-12-06T03:35:35.404Z,-3.53
2016-12-06T03:36:35.388Z,-3.51
2016-12-06T03:37:35.356Z,-3.49
2016-12-06T03:38:35.347Z,-3.49
2016-12-06T03:39:35.622Z,-3.49
2016-12-06T03:40:35.284Z,-3.6
2016-12-06T03:41:35.258Z,-3.56
2016-12-06T03:42:35.225Z,-3.53
2016-12-06T03:43:35.519Z,-3.53
2016-12-06T03:44:35.180Z,-3.54
2016-12-06T03:45:35.157Z,-3.53
2016-12-06T03:46:35.132Z,-3.6
2016-12-06T03:47:35.102Z,-3.57
2016-12-06T03:48:35.391Z,-3.61
2016-12-06T03:49:35.054Z,-3.6
2016-12-06T03:50:35.030Z,-3.62
2016-12-06T03:51:34.999Z,-3.53
2016-12-06T03:52:35.289Z,-3.56
2016-12-06T03:53:34.960Z,-3.51
2016-12-06T03:54:34.927Z,-3.64
2016-12-06T03:55:34.901Z,-3.67
2016-12-06T03:56:35.197Z,-3.65
2016-12-06T03:57:34.853Z,-3.62
2016-12-06T03:58:34.829Z,-3.64
2016-12-06T03:59:34.805Z,-3.71
2016-12-06T04:00:35.086Z,-3.7
2016-12-06T04:01:34.751Z,-3.65
2016-12-06T04:02:34.728Z,-3.65
2016-12-06T04:03:35.016Z,-3.62
2016-12-06T04:04:34.690Z,-3.61
2016-12-06T04:05:34.961Z,-3.64
2016-12-06T04:06:34.621Z,-3.65
2016-12-06T04:07:34.600Z,-3.67
2016-12-06T04:08:34.892Z,-3.67
2016-12-06T04:09:34.608Z,-3.65
2016-12-06T04:10:34.529Z,-3.64
2016-12-06T04:11:34.814Z,-3.64
2016-12-06T04:12:34.792Z,-3.6
2016-12-06T04:13:34.453Z,-3.64
2016-12-06T04:14:34.731Z,-3.64
2016-12-06T04:15:34.399Z,-3.64
2016-12-06T04:16:34.374Z,-3.61
2016-12-06T04:17:34.686Z,-3.6
2016-12-06T04:18:34.631Z,-3.62
2016-12-06T04:19:34.300Z,-3.71
2016-12-06T04:20:34.275Z,-3.6
2016-12-06T04:21:34.242Z,-3.64
2016-12-06T04:22:34.841Z,-3.64
2016-12-06T04:23:34.204Z,-3.65
2016-12-06T04:24:34.484Z,-3.62
2016-12-06T04:25:34.140Z,-3.67
2016-12-06T04:26:34.120Z,-3.61
2016-12-06T04:27:34.099Z,-3.68
2016-12-06T04:28:34.380Z,-3.67
2016-12-06T04:29:34.048Z,-3.64
2016-12-06T04:30:34.333Z,-3.65
2016-12-06T04:31:33.994Z,-3.64
2016-12-06T04:32:33.967Z,-3.61
2016-12-06T04:33:33.953Z,-3.64
2016-12-06T04:34:34.226Z,-3.62
2016-12-06T04:35:33.892Z,-3.65
2016-12-06T04:36:34.178Z,-3.67
2016-12-06T04:37:34.154Z,-3.72
2016-12-06T04:38:33.811Z,-3.67
2016-12-06T04:39:34.104Z,-3.65
2016-12-06T04:40:33.768Z,-3.81
2016-12-06T04:41:33.735Z,-3.68
2016-12-06T04:42:33.710Z,-3.76
2016-12-06T04:43:33.709Z,-3.8
2016-12-06T04:44:33.665Z,-3.81
2016-12-06T04:45:33.632Z,-3.84
2016-12-06T04:46:33.619Z,-3.71
2016-12-06T04:47:33.898Z,-3.81
2016-12-06T04:48:33.559Z,-3.78
2016-12-06T04:49:33.534Z,-3.8
2016-12-06T04:50:33.512Z,-3.83
2016-12-06T04:51:33.838Z,-3.81
2016-12-06T04:52:33.771Z,-3.75
2016-12-06T04:53:33.443Z,-3.81
2016-12-06T04:54:33.418Z,-3.83
2016-12-06T04:55:33.695Z,-3.8
2016-12-06T04:56:33.363Z,-3.81
2016-12-06T04:57:33.336Z,-3.83
2016-12-06T04:58:33.307Z,-3.81
2016-12-06T04:59:33.279Z,-3.86
2016-12-06T05:00:33.256Z,-3.84
2016-12-06T05:01:33.237Z,-3.84
2016-12-06T05:02:33.228Z,-3.84
2016-12-06T05:03:33.182Z,-3.84
2016-12-06T05:04:33.161Z,-3.87
2016-12-06T05:05:33.136Z,-3.89
2016-12-06T05:06:33.108Z,-3.9
2016-12-06T05:07:33.078Z,-3.84
2016-12-06T05:08:33.054Z,-3.81
2016-12-06T05:09:33.027Z,-3.89
2016-12-06T05:10:33.002Z,-3.84
2016-12-06T05:11:33.292Z,-3.84
2016-12-06T05:12:33.263Z,-3.83
2016-12-06T05:13:32.924Z,-3.86
2016-12-06T05:14:32.902Z,-3.83
2016-12-06T05:15:32.878Z,-3.87
2016-12-06T05:16:32.852Z,-3.83
2016-12-06T05:17:32.828Z,-3.8
2016-12-06T05:18:32.799Z,-3.86
2016-12-06T05:19:32.769Z,-3.86
2016-12-06T05:20:32.749Z,-3.84
2016-12-06T05:21:32.723Z,-3.81
2016-12-06T05:22:32.698Z,-3.86
2016-12-06T05:23:32.669Z,-3.83
2016-12-06T05:24:32.647Z,-3.83
2016-12-06T05:25:32.621Z,-3.83
2016-12-06T05:26:32.923Z,-3.83
2016-12-06T05:27:32.571Z,-3.86
2016-12-06T05:28:32.548Z,-3.93
2016-12-06T05:29:32.515Z,-3.87
2016-12-06T05:30:32.499Z,-3.98
2016-12-06T05:31:32.465Z,-3.94
2016-12-06T05:32:32.440Z,-3.94
2016-12-06T05:33:32.418Z,-3.83
2016-12-06T05:34:32.390Z,-4.01
2016-12-06T05:35:32.365Z,-3.98
2016-12-06T05:36:32.342Z,-3.91
2016-12-06T05:37:32.626Z,-3.87
2016-12-06T05:38:32.294Z,-3.96
2016-12-06T05:39:32.268Z,-4.01
2016-12-06T05:40:32.244Z,-3.9
2016-12-06T05:41:32.210Z,-3.98
2016-12-06T05:42:32.190Z,-3.96
2016-12-06T05:43:32.473Z,-3.91
2016-12-06T05:44:32.443Z,-4.01
2016-12-06T05:45:32.109Z,-4.08
2016-12-06T05:46:32.088Z,-4.04
2016-12-06T05:47:32.061Z,-4.04
2016-12-06T05:48:32.033Z,-4.07
2016-12-06T05:49:32.014Z,-4.04
2016-12-06T05:50:31.986Z,-4.09
2016-12-06T05:51:32.268Z,-4.05
2016-12-06T05:52:31.932Z,-4.09
2016-12-06T05:53:32.219Z,-4.12
2016-12-06T05:54:31.887Z,-4.2
2016-12-06T05:55:31.857Z,-4.2
2016-12-06T05:56:32.141Z,-4.23
2016-12-06T05:57:32.121Z,-4.19
2016-12-06T05:58:32.090Z,-4.12
2016-12-06T05:59:31.750Z,-4.15
2016-12-06T06:00:31.731Z,-4.07
2016-12-06T06:01:31.702Z,-4.08
2016-12-06T06:02:31.674Z,-4.09
2016-12-06T06:03:31.651Z,-4.04
2016-12-06T06:04:31.948Z,-4.09
2016-12-06T06:05:31.633Z,-4.07
2016-12-06T06:06:32.421Z,-4.12
2016-12-06T06:07:31.550Z,-4.12
2016-12-06T06:08:31.528Z,-4.12
2016-12-06T06:09:31.495Z,-4.18
2016-12-06T06:10:31.472Z,-4.18
2016-12-06T06:11:31.761Z,-4.2
2016-12-06T06:12:31.422Z,-4.14
2016-12-06T06:13:31.391Z,-4.19
2016-12-06T06:14:31.376Z,-4.23
2016-12-06T06:15:31.343Z,-4.2
2016-12-06T06:16:31.320Z,-4.19
2016-12-06T06:17:31.291Z,-4.09
2016-12-06T06:18:31.268Z,-4.2
2016-12-06T06:19:31.554Z,-4.23
2016-12-06T06:20:31.214Z,-4.2
2016-12-06T06:21:31.189Z,-4.22
2016-12-06T06:22:31.161Z,-4.19
2016-12-06T06:23:31.452Z,-4.11
2016-12-06T06:24:31.442Z,-4.22
2016-12-06T06:25:31.422Z,-4.19
2016-12-06T06:26:31.384Z,-4.22
2016-12-06T06:27:31.360Z,-4.19
2016-12-06T06:28:31.322Z,-4.14
2016-12-06T06:29:30.987Z,-4.19
2016-12-06T06:30:31.269Z,-4.19
2016-12-06T06:31:30.953Z,-4.22
2016-12-06T06:32:31.289Z,-4.19
2016-12-06T06:33:31.201Z,-4.26
2016-12-06T06:34:31.178Z,-4.14
2016-12-06T06:35:30.834Z,-4.22
2016-12-06T06:36:30.813Z,-4.22
2016-12-06T06:37:30.778Z,-4.15
2016-12-06T06:38:31.073Z,-4.23
2016-12-06T06:39:30.728Z,-4.26
2016-12-06T06:40:30.701Z,-4.09
2016-12-06T06:41:30.679Z,-4.19
2016-12-06T06:42:30.647Z,-4.18
2016-12-06T06:43:30.946Z,-4.2
2016-12-06T06:44:30.595Z,-4.15
2016-12-06T06:45:30.888Z,-4.19
2016-12-06T06:46:30.547Z,-4.19
2016-12-06T06:47:30.520Z,-4.22
2016-12-06T06:48:30.499Z,-4.15
2016-12-06T06:49:30.780Z,-4.2
2016-12-06T06:50:30.441Z,-4.22
2016-12-06T06:51:30.424Z,-4.18
2016-12-06T06:52:30.391Z,-4.08
2016-12-06T06:53:30.990Z,-4.14
2016-12-06T06:54:30.344Z,-4.09
2016-12-06T06:55:30.315Z,-4.09
2016-12-06T06:56:30.294Z,-4.08
2016-12-06T06:57:30.264Z,-4.2
2016-12-06T06:58:30.240Z,-4.14
2016-12-06T06:59:30.217Z,-4.22
2016-12-06T07:00:30.199Z,-4.23
2016-12-06T07:01:30.203Z,-4.08
2016-12-06T07:02:30.450Z,-4.07
2016-12-06T07:03:30.137Z,-4.09
2016-12-06T07:04:30.396Z,-4.07
2016-12-06T07:05:30.388Z,-4.07
2016-12-06T07:06:30.031Z,-4.07
2016-12-06T07:07:30.007Z,-4.08
2016-12-06T07:08:29.982Z,-4.04
2016-12-06T07:09:29.953Z,-3.91
2016-12-06T07:10:29.928Z,-4.04
2016-12-06T07:11:29.904Z,-4.02
2016-12-06T07:12:29.874Z,-3.99
2016-12-06T07:13:29.874Z,-4.05
2016-12-06T07:14:29.834Z,-3.96
2016-12-06T07:15:29.801Z,-4.02
2016-12-06T07:16:29.777Z,-3.98
2016-12-06T07:17:29.747Z,-3.98
2016-12-06T07:18:29.722Z,-3.99
2016-12-06T07:19:30.018Z,-3.98
2016-12-06T07:20:30.295Z,-3.98
2016-12-06T07:21:29.968Z,-3.94
2016-12-06T07:22:29.935Z,-3.94
2016-12-06T07:23:29.907Z,-3.91
2016-12-06T07:24:29.575Z,-3.89
2016-12-06T07:25:29.553Z,-3.96
2016-12-06T07:26:29.833Z,-3.89
2016-12-06T07:27:29.496Z,-3.91
2016-12-06T07:28:29.789Z,-3.81
2016-12-06T07:29:29.442Z,-3.8
2016-12-06T07:30:29.415Z,-3.76
2016-12-06T07:31:29.396Z,-3.67
2016-12-06T07:32:29.365Z,-3.71
2016-12-06T07:33:29.651Z,-3.62
2016-12-06T07:34:29.318Z,-3.57
2016-12-06T07:35:29.288Z,-3.61
2016-12-06T07:36:29.261Z,-3.72
2016-12-06T07:37:29.550Z,-3.68
2016-12-06T07:38:29.214Z,-3.61
2016-12-06T07:39:29.498Z,-3.65
2016-12-06T07:40:29.494Z,-3.67
2016-12-06T07:41:29.880Z,-3.6
2016-12-06T07:42:29.118Z,-3.61
2016-12-06T07:43:29.399Z,-3.7
2016-12-06T07:44:29.060Z,-3.64
2016-12-06T07:45:29.356Z,-3.6
2016-12-06T07:46:29.013Z,-3.62
2016-12-06T07:47:28.983Z,-3.61
2016-12-06T07:48:29.281Z,-3.56
2016-12-06T07:49:28.932Z,-3.57
2016-12-06T07:50:29.218Z,-3.61
2016-12-06T07:51:28.877Z,-3.53
2016-12-06T07:52:28.855Z,-3.5
2016-12-06T07:53:28.835Z,-3.43
2016-12-06T07:54:28.805Z,-3.44
2016-12-06T07:55:28.782Z,-3.39
2016-12-06T07:56:28.763Z,-3.41
2016-12-06T07:57:28.725Z,-3.36
2016-12-06T07:58:28.703Z,-3.33
2016-12-06T07:59:28.678Z,-3.36
2016-12-06T08:00:28.654Z,-3.32
2016-12-06T08:01:28.635Z,-3.25
2016-12-06T08:02:28.603Z,-3.31
2016-12-06T08:03:28.579Z,-3.22
2016-12-06T08:04:28.555Z,-3.22
2016-12-06T08:05:28.523Z,-3.18
2016-12-06T08:06:28.705Z,-3.23
2016-12-06T08:07:28.787Z,-3.11
2016-12-06T08:08:28.459Z,-3.15
2016-12-06T08:09:28.431Z,-3.15
2016-12-06T08:10:28.757Z,-3.17
2016-12-06T08:11:28.393Z,-3.08
2016-12-06T08:12:28.356Z,-3.11
2016-12-06T08:13:28.328Z,-3.07
2016-12-06T08:14:28.315Z,-3.05
2016-12-06T08:15:28.279Z,-2.93
2016-12-06T08:16:28.253Z,-2.99
2016-12-06T08:17:28.223Z,-2.86
2016-12-06T08:18:28.205Z,-2.89
2016-12-06T08:19:28.173Z,-2.89
2016-12-06T08:20:28.464Z,-2.82
2016-12-06T08:21:28.127Z,-2.92
2016-12-06T08:22:28.160Z,-2.92
2016-12-06T08:23:28.076Z,-2.85
2016-12-06T08:24:28.077Z,-2.89
2016-12-06T08:25:28.027Z,-2.86
2016-12-06T08:26:28.002Z,-2.82
2016-12-06T08:27:28.295Z,-2.76
2016-12-06T08:28:27.951Z,-2.81
2016-12-06T08:29:27.933Z,-2.76
2016-12-06T08:30:27.903Z,-2.75
2016-12-06T08:31:28.190Z,-2.68
2016-12-06T08:32:28.172Z,-2.69
2016-12-06T08:33:28.138Z,-2.69
2016-12-06T08:34:28.119Z,-2.68
2016-12-06T08:35:27.784Z,-2.69
2016-12-06T08:36:27.756Z,-2.61
2016-12-06T08:37:27.730Z,-2.6
2016-12-06T08:38:28.023Z,-2.64
2016-12-06T08:39:27.679Z,-2.56
2016-12-06T08:40:27.658Z,-2.56
2016-12-06T08:41:27.680Z,-2.39
2016-12-06T08:42:27.609Z,-2.48
2016-12-06T08:43:27.578Z,-2.38
2016-12-06T08:44:27.562Z,-2.36
2016-12-06T08:45:27.533Z,-2.47
2016-12-06T08:46:27.507Z,-2.43
2016-12-06T08:47:27.484Z,-2.4
2016-12-06T08:48:27.463Z,-2.35
2016-12-06T08:49:27.440Z,-2.33
2016-12-06T08:50:27.414Z,-2.2
2016-12-06T08:51:27.386Z,-2.29
2016-12-06T08:52:27.675Z,-2.29
2016-12-06T08:53:27.339Z,-2.2
2016-12-06T08:54:27.315Z,-2.26
2016-12-06T08:55:27.293Z,-2.2
2016-12-06T08:56:27.583Z,-2.18
2016-12-06T08:57:27.241Z,-2.13
2016-12-06T08:58:27.217Z,-2.18
2016-12-06T08:59:27.507Z,-2.11
2016-12-06T09:00:27.169Z,-2.06
2016-12-06T09:01:27.149Z,-1.95
2016-12-06T09:02:27.123Z,-1.96
2016-12-06T09:03:27.097Z,-1.92
2016-12-06T09:04:27.073Z,-1.88
2016-12-06T09:05:27.364Z,-1.82
2016-12-06T09:06:27.022Z,-1.78
2016-12-06T09:07:27.003Z,-1.78
2016-12-06T09:08:26.974Z,-1.77
2016-12-06T09:09:26.959Z,-1.64
2016-12-06T09:10:26.932Z,-1.72
2016-12-06T09:11:26.905Z,-1.69
2016-12-06T09:12:26.889Z,-1.69
2016-12-06T09:13:26.862Z,-1.66
2016-12-06T09:14:27.464Z,-1.66
2016-12-06T09:15:26.809Z,-1.63
2016-12-06T09:16:26.791Z,-1.49
2016-12-06T09:17:26.761Z,-1.45
2016-12-06T09:18:26.751Z,-1.42
2016-12-06T09:19:26.728Z,-1.36
2016-12-06T09:20:27.031Z,-1.38
2016-12-06T09:21:26.993Z,-1.36
2016-12-06T09:22:27.000Z,-1.3
2016-12-06T09:23:26.630Z,-1.2
2016-12-06T09:24:26.609Z,-1.05
2016-12-06T09:25:26.587Z,-0.99
2016-12-06T09:26:26.553Z,-0.91
2016-12-06T09:27:27.159Z,-0.84
2016-12-06T09:28:26.511Z,-0.63
2016-12-06T09:29:26.803Z,-0.45
2016-12-06T09:30:26.467Z,-0.36
2016-12-06T09:31:26.457Z,-0.34
2016-12-06T09:32:26.726Z,-0.31
2016-12-06T09:33:26.392Z,-0.36
2016-12-06T09:34:26.367Z,-0.19
2016-12-06T09:35:26.347Z,-0.12
2016-12-06T09:36:26.325Z,-0.11
2016-12-06T09:37:26.305Z,-0.16
2016-12-06T09:38:26.279Z,-0.15
2016-12-06T09:39:26.256Z,-0.06
2016-12-06T09:40:26.245Z,0.18
2016-12-06T09:41:26.527Z,0.24
2016-12-06T09:42:26.501Z,0.43
2016-12-06T09:43:26.482Z,0.82
2016-12-06T09:44:26.146Z,1.18
2016-12-06T09:45:26.134Z,1.6
2016-12-06T09:46:26.148Z,1.62
2016-12-06T09:47:26.083Z,1.82
2016-12-06T09:48:26.059Z,2.06
2016-12-06T09:49:26.052Z,2.35
2016-12-06T09:50:26.023Z,2.58
2016-12-06T09:51:26.004Z,2.76
2016-12-06T09:52:26.302Z,3.12
2016-12-06T09:53:26.268Z,3.54
2016-12-06T09:54:25.961Z,3.94
2016-12-06T09:55:25.920Z,4.39
2016-12-06T09:56:25.898Z,4.83
2016-12-06T09:57:25.880Z,5.49
2016-12-06T09:58:25.859Z,5.83
2016-12-06T09:59:26.155Z,6.07
2016-12-06T10:00:25.830Z,6.62
2016-12-06T10:01:26.123Z,7.05
2016-12-06T10:02:25.803Z,7.44
2016-12-06T10:03:25.769Z,7.53
2016-12-06T10:04:25.753Z,7.5
2016-12-06T10:05:25.782Z,7.31
2016-12-06T10:06:25.927Z,7.44
2016-12-06T10:07:25.702Z,7.58
2016-12-06T10:08:25.690Z,7.71
2016-12-06T10:09:26.029Z,7.84
2016-12-06T10:10:25.666Z,8.03
2016-12-06T10:11:25.701Z,8.32
2016-12-06T10:12:25.628Z,8.45
2016-12-06T10:13:25.604Z,8.62
2016-12-06T10:14:25.593Z,8.76
2016-12-06T10:15:25.620Z,8.78
2016-12-06T10:16:25.556Z,8.65
2016-12-06T10:17:25.544Z,8.32
2016-12-06T10:18:25.537Z,7.99
2016-12-06T10:19:25.514Z,8.02
2016-12-06T10:20:25.499Z,7.81
2016-12-06T10:21:25.483Z,7.77
2016-12-06T10:22:25.782Z,7.59
2016-12-06T10:23:25.463Z,7.42
2016-12-06T10:24:25.443Z,7.02
2016-12-06T10:25:25.439Z,6.86
2016-12-06T10:26:25.412Z,6.77
2016-12-06T10:27:25.397Z,6.73
2016-12-06T10:28:25.384Z,6.8
2016-12-06T10:29:25.373Z,6.87
2016-12-06T10:30:26.040Z,6.99
2016-12-06T10:31:25.341Z,7.16
2016-12-06T10:32:25.634Z,7.37
2016-12-06T10:33:25.310Z,7.56
2016-12-06T10:34:25.305Z,7.67
2016-12-06T10:35:25.281Z,7.79
2016-12-06T10:36:25.304Z,7.82
2016-12-06T10:37:25.258Z,7.67
2016-12-06T10:38:25.247Z,7.63
2016-12-06T10:39:25.546Z,7.41
2016-12-06T10:40:25.526Z,7.27
2016-12-06T10:41:25.253Z,7.22
2016-12-06T10:42:25.195Z,7.24
2016-12-06T10:43:25.178Z,7.2
2016-12-06T10:44:25.166Z,7.12
2016-12-06T10:45:25.148Z,7.08
2016-12-06T10:46:25.137Z,6.97
2016-12-06T10:47:25.124Z,6.99
2016-12-06T10:48:25.110Z,7.04
2016-12-06T10:49:25.098Z,7.16
2016-12-06T10:50:25.084Z,7.12
2016-12-06T10:51:25.072Z,7.15
2016-12-06T10:52:25.060Z,7.27
2016-12-06T10:53:25.354Z,7.41
2016-12-06T10:54:25.029Z,7.55
2016-12-06T10:55:25.019Z,7.52
2016-12-06T10:56:25.009Z,7.74
2016-12-06T10:57:24.994Z,7.92
2016-12-06T10:58:24.986Z,8.14
2016-12-06T10:59:24.970Z,8.29
2016-12-06T11:00:25.011Z,8.6
2016-12-06T11:01:24.986Z,8.47
2016-12-06T11:02:24.975Z,8.48
2016-12-06T11:03:24.930Z,8.44
2016-12-06T11:04:25.230Z,8.32
2016-12-06T11:05:25.215Z,8.33
2016-12-06T11:06:25.205Z,8.35
2016-12-06T11:07:24.882Z,8.32
2016-12-06T11:08:24.867Z,8.18
2016-12-06T11:09:25.209Z,8.3
2016-12-06T11:10:24.847Z,8.2
2016-12-06T11:11:24.837Z,8.36
2016-12-06T11:12:25.136Z,8.48
2016-12-06T11:13:24.815Z,8.6
2016-12-06T11:14:24.801Z,8.72
2016-12-06T11:15:24.796Z,8.72
2016-12-06T11:16:24.787Z,8.58
2016-12-06T11:17:24.772Z,8.32
2016-12-06T11:18:24.760Z,8.21
2016-12-06T11:19:24.755Z,8
2016-12-06T11:20:25.061Z,7.79
2016-12-06T11:21:25.041Z,7.58
2016-12-06T11:22:24.721Z,7.27
2016-12-06T11:23:24.710Z,7.05
2016-12-06T11:24:24.697Z,6.97
2016-12-06T11:25:24.685Z,6.76
2016-12-06T11:26:24.678Z,6.73
2016-12-06T11:27:24.696Z,6.5
2016-12-06T11:28:24.702Z,6.32
2016-12-06T11:29:24.643Z,6.29
2016-12-06T11:30:24.631Z,6.21
2016-12-06T11:31:24.626Z,6.06
2016-12-06T11:32:24.606Z,6.09
2016-12-06T11:33:24.594Z,5.95
2016-12-06T11:34:24.580Z,6.04
2016-12-06T11:35:24.573Z,5.92
2016-12-06T11:36:24.867Z,5.98
2016-12-06T11:37:24.545Z,5.92
2016-12-06T11:38:24.528Z,5.89
2016-12-06T11:39:24.523Z,5.75
2016-12-06T11:40:24.500Z,5.68
2016-12-06T11:41:24.485Z,5.64
2016-12-06T11:42:24.474Z,5.6
2016-12-06T11:43:24.505Z,5.57
2016-12-06T11:44:24.440Z,5.41
2016-12-06T11:45:25.068Z,5.46
2016-12-06T11:46:24.728Z,5.43
2016-12-06T11:47:24.403Z,5.5
2016-12-06T11:48:24.699Z,5.46
2016-12-06T11:49:24.369Z,5.4
2016-12-06T11:50:24.356Z,5.43
2016-12-06T11:51:24.344Z,5.45
2016-12-06T11:52:24.325Z,5.38
2016-12-06T11:53:24.310Z,5.3
2016-12-06T11:54:24.296Z,5.3
2016-12-06T11:55:24.282Z,5.22
2016-12-06T11:56:24.267Z,5.16
2016-12-06T11:57:24.248Z,5.17
2016-12-06T11:58:24.234Z,5.16
2016-12-06T11:59:24.215Z,5.2
2016-12-06T12:00:24.202Z,5.23
2016-12-06T12:01:24.188Z,5.17
2016-12-06T12:02:24.171Z,5.14
2016-12-06T12:03:24.160Z,5.31
2016-12-06T12:04:24.136Z,5.28
2016-12-06T12:05:24.121Z,5.46
2016-12-06T12:06:24.323Z,5.56
2016-12-06T12:07:24.091Z,5.82
2016-12-06T12:08:24.072Z,6.19
2016-12-06T12:09:24.379Z,6.71
2016-12-06T12:10:24.047Z,7.16
2016-12-06T12:11:24.060Z,7.77
2016-12-06T12:12:24.026Z,8.15
2016-12-06T12:13:24.005Z,8.54
2016-12-06T12:14:24.004Z,8.94
2016-12-06T12:15:23.995Z,9.24
2016-12-06T12:16:23.971Z,9.53
2016-12-06T12:17:23.955Z,9.91
2016-12-06T12:18:23.943Z,10.15
2016-12-06T12:19:24.249Z,10.47
2016-12-06T12:20:24.240Z,10.8
2016-12-06T12:21:24.227Z,11.02
2016-12-06T12:22:23.900Z,11.29
2016-12-06T12:23:23.890Z,11.46
2016-12-06T12:24:23.886Z,11.67
2016-12-06T12:25:24.192Z,11.96
2016-12-06T12:26:24.181Z,12.21
2016-12-06T12:27:23.854Z,12.39
2016-12-06T12:28:23.884Z,12.38
2016-12-06T12:29:23.837Z,12.44
2016-12-06T12:30:23.829Z,12.52
2016-12-06T12:31:24.133Z,12.54
2016-12-06T12:32:23.817Z,12.67
2016-12-06T12:33:23.804Z,12.85
2016-12-06T12:34:23.801Z,13
2016-12-06T12:35:23.793Z,13.04
2016-12-06T12:36:23.785Z,13.09
2016-12-06T12:37:23.780Z,13.2
2016-12-06T12:38:23.776Z,13.04
2016-12-06T12:39:23.765Z,13.14
2016-12-06T12:40:23.761Z,13.22
2016-12-06T12:41:24.065Z,13.22
2016-12-06T12:42:23.796Z,13.43
2016-12-06T12:43:23.737Z,13.44
2016-12-06T12:44:24.052Z,13.54
2016-12-06T12:45:24.045Z,13.52
2016-12-06T12:46:23.722Z,13.55
2016-12-06T12:47:23.737Z,13.63
2016-12-06T12:48:23.708Z,13.69
2016-12-06T12:49:23.701Z,13.38
2016-12-06T12:50:23.703Z,13.21
2016-12-06T12:51:23.741Z,13.2
2016-12-06T12:52:24.055Z,13.2
2016-12-06T12:53:23.682Z,13.14
2016-12-06T12:54:23.727Z,13.21
2016-12-06T12:55:23.675Z,13.27
2016-12-06T12:56:23.696Z,13.27
2016-12-06T12:57:23.984Z,12.88
2016-12-06T12:58:23.662Z,12.56
2016-12-06T12:59:23.665Z,12.34
2016-12-06T13:00:23.652Z,12.39